Terminal Aerodrome Forecast
Issued by NWS Cleveland, OH

Home | Current Version | Previous Version | Text Only | Print | Product List | Glossary On
Versions: 1 2 3 4 5 6 7 8 9 10 11 12 13 14 15 16 17 18 19 20 21 22 23
000
FTUS41 KCLE 011300 AAA
TAFERI
TAF AMD
KERI 011352Z 0114/0212 VRB03KT 1 1/2SM -SN SCT008 OVC015
      TEMPO 0114/0118 3/4SM -SN BKN008
     FM012000 06010G20KT 1SM -SN OVC008
     FM020100 06012G22KT 1/2SM SN BLSN OVC004=

USA.gov is the U.S. government's official web portal to all federal, state and local government web resources and services.